sensor_id;sensor_type;location;lat;lon;timestamp;temperature;humidity
53695;DHT22;39588;51.124;7.190;2022-09-09T00:02:01;16.90;99.70
53695;DHT22;39588;51.124;7.190;2022-09-09T00:04:32;16.90;99.70
53695;DHT22;39588;51.124;7.190;2022-09-09T00:09:39;16.90;99.70
53695;DHT22;39588;51.124;7.190;2022-09-09T00:14:59;17.00;99.50
53695;DHT22;39588;51.124;7.190;2022-09-09T00:17:55;17.10;99.40
53695;DHT22;39588;51.124;7.190;2022-09-09T00:20:48;17.10;99.40
53695;DHT22;39588;51.124;7.190;2022-09-09T00:26:02;17.00;99.30
53695;DHT22;39588;51.124;7.190;2022-09-09T00:28:32;17.00;99.30
53695;DHT22;39588;51.124;7.190;2022-09-09T00:31:15;16.80;99.40
53695;DHT22;39588;51.124;7.190;2022-09-09T00:33:43;16.70;99.50
53695;DHT22;39588;51.124;7.190;2022-09-09T00:36:18;16.60;99.50
53695;DHT22;39588;51.124;7.190;2022-09-09T00:38:49;16.70;99.60
53695;DHT22;39588;51.124;7.190;2022-09-09T00:44:32;16.70;99.50
53695;DHT22;39588;51.124;7.190;2022-09-09T00:50:02;16.80;99.50
53695;DHT22;39588;51.124;7.190;2022-09-09T00:58:01;16.90;99.40
53695;DHT22;39588;51.124;7.190;2022-09-09T01:00:32;16.90;99.40
53695;DHT22;39588;51.124;7.190;2022-09-09T01:11:00;16.90;99.40
53695;DHT22;39588;51.124;7.190;2022-09-09T01:13:33;16.90;99.30
53695;DHT22;39588;51.124;7.190;2022-09-09T01:16:03;16.90;99.40
53695;DHT22;39588;51.124;7.190;2022-09-09T01:18:33;17.00;99.30
53695;DHT22;39588;51.124;7.190;2022-09-09T01:26:46;16.70;99.50
53695;DHT22;39588;51.124;7.190;2022-09-09T01:29:15;16.70;99.60
53695;DHT22;39588;51.124;7.190;2022-09-09T01:32:02;16.60;99.50
53695;DHT22;39588;51.124;7.190;2022-09-09T01:34:33;16.60;99.50
53695;DHT22;39588;51.124;7.190;2022-09-09T01:37:08;16.70;99.50
53695;DHT22;39588;51.124;7.190;2022-09-09T01:39:36;16.70;99.50
53695;DHT22;39588;51.124;7.190;2022-09-09T01:42:04;16.70;99.40
53695;DHT22;39588;51.124;7.190;2022-09-09T01:44:32;16.50;99.40
53695;DHT22;39588;51.124;7.190;2022-09-09T01:46:58;16.50;99.60
53695;DHT22;39588;51.124;7.190;2022-09-09T01:49:23;16.50;99.50
53695;DHT22;39588;51.124;7.190;2022-09-09T01:51:53;16.50;99.50
53695;DHT22;39588;51.124;7.190;2022-09-09T01:54:20;16.40;99.50
53695;DHT22;39588;51.124;7.190;2022-09-09T02:02:24;16.40;99.50
53695;DHT22;39588;51.124;7.190;2022-09-09T02:05:00;16.30;99.50
53695;DHT22;39588;51.124;7.190;2022-09-09T02:07:41;16.20;99.60
53695;DHT22;39588;51.124;7.190;2022-09-09T02:12:43;16.00;99.80
53695;DHT22;39588;51.124;7.190;2022-09-09T02:18:04;16.20;99.80
53695;DHT22;39588;51.124;7.190;2022-09-09T02:20:32;16.20;99.70
53695;DHT22;39588;51.124;7.190;2022-09-09T02:22:59;16.30;99.70
53695;DHT22;39588;51.124;7.190;2022-09-09T02:25:28;16.40;99.70
53695;DHT22;39588;51.124;7.190;2022-09-09T02:27:55;16.40;99.50
53695;DHT22;39588;51.124;7.190;2022-09-09T02:30:23;16.40;99.50
53695;DHT22;39588;51.124;7.190;2022-09-09T02:32:51;16.40;99.50
53695;DHT22;39588;51.124;7.190;2022-09-09T02:35:23;16.40;99.60
53695;DHT22;39588;51.124;7.190;2022-09-09T02:37:53;16.30;99.70
53695;DHT22;39588;51.124;7.190;2022-09-09T02:40:20;16.30;99.80
53695;DHT22;39588;51.124;7.190;2022-09-09T02:42:47;16.40;99.90
53695;DHT22;39588;51.124;7.190;2022-09-09T02:45:18;16.40;99.90
53695;DHT22;39588;51.124;7.190;2022-09-09T02:47:51;16.50;99.90
53695;DHT22;39588;51.124;7.190;2022-09-09T02:56:11;16.50;99.90
53695;DHT22;39588;51.124;7.190;2022-09-09T02:58:39;16.50;99.90
53695;DHT22;39588;51.124;7.190;2022-09-09T03:01:05;16.60;99.90
53695;DHT22;39588;51.124;7.190;2022-09-09T03:03:31;16.50;99.90
53695;DHT22;39588;51.124;7.190;2022-09-09T03:05:56;16.60;99.90
53695;DHT22;39588;51.124;7.190;2022-09-09T03:08:22;16.60;99.90
53695;DHT22;39588;51.124;7.190;2022-09-09T03:10:48;16.60;99.70
53695;DHT22;39588;51.124;7.190;2022-09-09T03:13:14;16.60;99.80
53695;DHT22;39588;51.124;7.190;2022-09-09T03:15:40;16.60;99.70
53695;DHT22;39588;51.124;7.190;2022-09-09T03:22:59;16.60;99.80
53695;DHT22;39588;51.124;7.190;2022-09-09T03:25:25;16.50;99.80
53695;DHT22;39588;51.124;7.190;2022-09-09T03:27:52;16.50;99.80
53695;DHT22;39588;51.124;7.190;2022-09-09T03:30:21;16.50;99.80
53695;DHT22;39588;51.124;7.190;2022-09-09T03:32:47;16.40;99.80
53695;DHT22;39588;51.124;7.190;2022-09-09T03:35:13;16.40;99.80
53695;DHT22;39588;51.124;7.190;2022-09-09T03:40:07;16.30;99.70
53695;DHT22;39588;51.124;7.190;2022-09-09T03:42:35;16.30;99.90
53695;DHT22;39588;51.124;7.190;2022-09-09T03:45:03;16.30;99.90
53695;DHT22;39588;51.124;7.190;2022-09-09T03:49:55;16.20;99.90
53695;DHT22;39588;51.124;7.190;2022-09-09T03:52:20;16.20;99.90
53695;DHT22;39588;51.124;7.190;2022-09-09T03:54:50;16.20;99.90
53695;DHT22;39588;51.124;7.190;2022-09-09T03:59:43;16.20;99.90
53695;DHT22;39588;51.124;7.190;2022-09-09T04:02:08;16.10;99.90
53695;DHT22;39588;51.124;7.190;2022-09-09T04:04:34;16.10;99.90
53695;DHT22;39588;51.124;7.190;2022-09-09T04:07:00;16.00;99.90
53695;DHT22;39588;51.124;7.190;2022-09-09T04:09:26;16.00;99.90
53695;DHT22;39588;51.124;7.190;2022-09-09T04:14:19;16.00;99.90
53695;DHT22;39588;51.124;7.190;2022-09-09T04:16:44;16.00;99.90
53695;DHT22;39588;51.124;7.190;2022-09-09T04:19:11;16.00;99.90
53695;DHT22;39588;51.124;7.190;2022-09-09T04:21:41;16.10;99.90
53695;DHT22;39588;51.124;7.190;2022-09-09T04:24:07;16.10;99.90
53695;DHT22;39588;51.124;7.190;2022-09-09T04:26:34;16.10;99.90
53695;DHT22;39588;51.124;7.190;2022-09-09T04:29:02;16.00;99.90
53695;DHT22;39588;51.124;7.190;2022-09-09T04:31:28;16.00;99.90
53695;DHT22;39588;51.124;7.190;2022-09-09T04:33:53;16.00;99.90
53695;DHT22;39588;51.124;7.190;2022-09-09T04:36:19;16.00;99.90
53695;DHT22;39588;51.124;7.190;2022-09-09T04:38:45;16.10;99.90
53695;DHT22;39588;51.124;7.190;2022-09-09T04:41:11;16.10;99.90
53695;DHT22;39588;51.124;7.190;2022-09-09T04:43:38;16.10;99.90
53695;DHT22;39588;51.124;7.190;2022-09-09T04:46:04;16.10;99.90
53695;DHT22;39588;51.124;7.190;2022-09-09T04:48:30;16.10;99.90
53695;DHT22;39588;51.124;7.190;2022-09-09T04:51:05;16.10;99.90
53695;DHT22;39588;51.124;7.190;2022-09-09T04:56:08;16.00;99.90
53695;DHT22;39588;51.124;7.190;2022-09-09T04:58:36;16.10;99.90
53695;DHT22;39588;51.124;7.190;2022-09-09T05:01:11;16.10;99.90
53695;DHT22;39588;51.124;7.190;2022-09-09T05:03:37;16.10;99.90
53695;DHT22;39588;51.124;7.190;2022-09-09T05:06:15;16.00;99.90
53695;DHT22;39588;51.124;7.190;2022-09-09T05:08:42;16.00;99.90
53695;DHT22;39588;51.124;7.190;2022-09-09T05:13:41;16.00;99.90
53695;DHT22;39588;51.124;7.190;2022-09-09T05:16:07;15.90;99.90
53695;DHT22;39588;51.124;7.190;2022-09-09T05:18:39;16.00;99.90
53695;DHT22;39588;51.124;7.190;2022-09-09T05:21:06;16.00;99.90
53695;DHT22;39588;51.124;7.190;2022-09-09T05:23:33;15.90;99.90
53695;DHT22;39588;51.124;7.190;2022-09-09T05:25:59;15.90;99.90
53695;DHT22;39588;51.124;7.190;2022-09-09T05:28:26;15.80;99.90
53695;DHT22;39588;51.124;7.190;2022-09-09T05:31:03;15.90;99.90
53695;DHT22;39588;51.124;7.190;2022-09-09T05:33:31;15.90;99.90
53695;DHT22;39588;51.124;7.190;2022-09-09T05:36:05;15.90;99.90
53695;DHT22;39588;51.124;7.190;2022-09-09T05:38:33;16.00;99.90
53695;DHT22;39588;51.124;7.190;2022-09-09T05:41:00;16.00;99.90
53695;DHT22;39588;51.124;7.190;2022-09-09T05:43:27;16.00;99.90
53695;DHT22;39588;51.124;7.190;2022-09-09T05:46:04;16.00;99.90
53695;DHT22;39588;51.124;7.190;2022-09-09T05:48:32;16.00;99.90
53695;DHT22;39588;51.124;7.190;2022-09-09T05:50:58;16.10;99.90
53695;DHT22;39588;51.124;7.190;2022-09-09T05:53:25;16.10;99.90
53695;DHT22;39588;51.124;7.190;2022-09-09T05:58:33;16.10;99.90
53695;DHT22;39588;51.124;7.190;2022-09-09T06:01:10;16.10;99.90
53695;DHT22;39588;51.124;7.190;2022-09-09T06:03:37;16.00;99.90
53695;DHT22;39588;51.124;7.190;2022-09-09T06:06:08;16.00;99.90
53695;DHT22;39588;51.124;7.190;2022-09-09T06:08:35;15.90;99.90
53695;DHT22;39588;51.124;7.190;2022-09-09T06:11:16;15.90;99.90
53695;DHT22;39588;51.124;7.190;2022-09-09T06:13:42;15.90;99.90
53695;DHT22;39588;51.124;7.190;2022-09-09T06:16:13;15.90;99.90
53695;DHT22;39588;51.124;7.190;2022-09-09T06:18:40;15.90;99.90
53695;DHT22;39588;51.124;7.190;2022-09-09T06:21:40;15.80;99.90
53695;DHT22;39588;51.124;7.190;2022-09-09T06:23:59;15.80;99.90
53695;DHT22;39588;51.124;7.190;2022-09-09T06:26:33;15.80;99.90
53695;DHT22;39588;51.124;7.190;2022-09-09T06:29:00;15.90;99.90
53695;DHT22;39588;51.124;7.190;2022-09-09T06:31:28;16.00;99.90
53695;DHT22;39588;51.124;7.190;2022-09-09T06:33:58;16.10;99.90
53695;DHT22;39588;51.124;7.190;2022-09-09T06:36:37;16.10;99.90
53695;DHT22;39588;51.124;7.190;2022-09-09T06:39:03;16.10;99.90
53695;DHT22;39588;51.124;7.190;2022-09-09T06:41:31;16.20;99.90
53695;DHT22;39588;51.124;7.190;2022-09-09T06:43:57;16.20;99.90
53695;DHT22;39588;51.124;7.190;2022-09-09T06:46:25;16.30;99.90
53695;DHT22;39588;51.124;7.190;2022-09-09T06:48:54;16.20;99.90
53695;DHT22;39588;51.124;7.190;2022-09-09T06:51:30;16.30;99.90
53695;DHT22;39588;51.124;7.190;2022-09-09T06:53:59;16.40;99.90
53695;DHT22;39588;51.124;7.190;2022-09-09T06:58:54;16.50;99.90
53695;DHT22;39588;51.124;7.190;2022-09-09T07:01:28;16.40;99.90
53695;DHT22;39588;51.124;7.190;2022-09-09T07:03:56;16.50;99.90
53695;DHT22;39588;51.124;7.190;2022-09-09T07:06:26;16.60;99.90
53695;DHT22;39588;51.124;7.190;2022-09-09T07:08:54;16.70;99.90
53695;DHT22;39588;51.124;7.190;2022-09-09T07:11:21;16.80;99.90
53695;DHT22;39588;51.124;7.190;2022-09-09T07:13:48;16.80;99.90
53695;DHT22;39588;51.124;7.190;2022-09-09T07:16:16;16.80;99.90
53695;DHT22;39588;51.124;7.190;2022-09-09T07:18:43;17.00;99.90
53695;DHT22;39588;51.124;7.190;2022-09-09T07:21:10;17.10;99.90
53695;DHT22;39588;51.124;7.190;2022-09-09T07:23:38;17.10;99.80
53695;DHT22;39588;51.124;7.190;2022-09-09T07:26:09;17.10;99.90
53695;DHT22;39588;51.124;7.190;2022-09-09T07:28:35;17.10;99.90
53695;DHT22;39588;51.124;7.190;2022-09-09T07:31:01;17.30;99.90
53695;DHT22;39588;51.124;7.190;2022-09-09T07:33:29;17.60;99.90
53695;DHT22;39588;51.124;7.190;2022-09-09T07:36:07;17.90;99.80
53695;DHT22;39588;51.124;7.190;2022-09-09T07:38:48;18.10;99.30
53695;DHT22;39588;51.124;7.190;2022-09-09T07:41:20;18.10;98.90
53695;DHT22;39588;51.124;7.190;2022-09-09T07:43:48;18.00;98.90
53695;DHT22;39588;51.124;7.190;2022-09-09T07:46:15;17.90;99.00
53695;DHT22;39588;51.124;7.190;2022-09-09T07:48:49;17.90;99.00
53695;DHT22;39588;51.124;7.190;2022-09-09T07:51:23;17.80;98.70
53695;DHT22;39588;51.124;7.190;2022-09-09T07:54:10;17.80;98.80
53695;DHT22;39588;51.124;7.190;2022-09-09T07:56:37;17.80;98.80
53695;DHT22;39588;51.124;7.190;2022-09-09T07:59:03;17.80;99.10
53695;DHT22;39588;51.124;7.190;2022-09-09T08:01:34;17.90;98.70
53695;DHT22;39588;51.124;7.190;2022-09-09T08:04:08;18.00;98.60
53695;DHT22;39588;51.124;7.190;2022-09-09T08:06:38;18.10;98.50
53695;DHT22;39588;51.124;7.190;2022-09-09T08:09:06;18.20;98.50
53695;DHT22;39588;51.124;7.190;2022-09-09T08:11:32;18.30;98.30
53695;DHT22;39588;51.124;7.190;2022-09-09T08:16:31;18.40;98.00
53695;DHT22;39588;51.124;7.190;2022-09-09T08:21:26;18.50;98.10
53695;DHT22;39588;51.124;7.190;2022-09-09T08:23:56;18.50;98.10
53695;DHT22;39588;51.124;7.190;2022-09-09T08:26:25;18.60;98.10
53695;DHT22;39588;51.124;7.190;2022-09-09T08:28:52;18.60;97.70
53695;DHT22;39588;51.124;7.190;2022-09-09T08:31:20;18.60;97.50
53695;DHT22;39588;51.124;7.190;2022-09-09T08:36:21;18.40;97.60
53695;DHT22;39588;51.124;7.190;2022-09-09T08:38:52;18.60;97.70
53695;DHT22;39588;51.124;7.190;2022-09-09T08:47:42;19.40;97.10
53695;DHT22;39588;51.124;7.190;2022-09-09T08:56:03;20.00;96.30
53695;DHT22;39588;51.124;7.190;2022-09-09T08:58:34;20.10;96.30
53695;DHT22;39588;51.124;7.190;2022-09-09T09:11:40;20.10;95.40
53695;DHT22;39588;51.124;7.190;2022-09-09T09:14:26;20.20;95.30
53695;DHT22;39588;51.124;7.190;2022-09-09T09:16:57;20.20;94.80
53695;DHT22;39588;51.124;7.190;2022-09-09T09:19:24;20.10;94.50
53695;DHT22;39588;51.124;7.190;2022-09-09T09:24:23;20.00;94.30
53695;DHT22;39588;51.124;7.190;2022-09-09T09:26:51;20.10;94.80
53695;DHT22;39588;51.124;7.190;2022-09-09T09:29:19;20.10;94.40
53695;DHT22;39588;51.124;7.190;2022-09-09T09:31:53;20.10;93.90
53695;DHT22;39588;51.124;7.190;2022-09-09T09:34:22;20.00;94.40
53695;DHT22;39588;51.124;7.190;2022-09-09T09:36:56;20.10;94.40
53695;DHT22;39588;51.124;7.190;2022-09-09T09:39:33;20.40;94.80
53695;DHT22;39588;51.124;7.190;2022-09-09T09:42:23;21.00;94.40
53695;DHT22;39588;51.124;7.190;2022-09-09T09:47:18;21.30;93.90
53695;DHT22;39588;51.124;7.190;2022-09-09T09:49:58;21.40;92.80
53695;DHT22;39588;51.124;7.190;2022-09-09T09:52:29;21.20;92.40
53695;DHT22;39588;51.124;7.190;2022-09-09T09:54:57;20.80;92.40
53695;DHT22;39588;51.124;7.190;2022-09-09T09:57:28;20.60;92.50
53695;DHT22;39588;51.124;7.190;2022-09-09T10:00:18;20.40;92.00
53695;DHT22;39588;51.124;7.190;2022-09-09T10:02:45;20.30;92.20
53695;DHT22;39588;51.124;7.190;2022-09-09T10:05:30;20.20;92.70
53695;DHT22;39588;51.124;7.190;2022-09-09T10:08:02;20.00;92.70
53695;DHT22;39588;51.124;7.190;2022-09-09T10:19:14;20.40;92.60
53695;DHT22;39588;51.124;7.190;2022-09-09T10:25:38;20.90;92.80
53695;DHT22;39588;51.124;7.190;2022-09-09T10:33:31;21.20;92.10
53695;DHT22;39588;51.124;7.190;2022-09-09T10:38:42;21.30;92.00
53695;DHT22;39588;51.124;7.190;2022-09-09T10:41:15;21.40;91.30
53695;DHT22;39588;51.124;7.190;2022-09-09T10:56:54;20.50;90.90
53695;DHT22;39588;51.124;7.190;2022-09-09T10:59:25;20.40;91.30
53695;DHT22;39588;51.124;7.190;2022-09-09T11:01:57;20.40;91.60
53695;DHT22;39588;51.124;7.190;2022-09-09T11:05:04;20.50;91.40
53695;DHT22;39588;51.124;7.190;2022-09-09T11:07:42;20.40;91.60
53695;DHT22;39588;51.124;7.190;2022-09-09T11:10:27;20.50;91.80
53695;DHT22;39588;51.124;7.190;2022-09-09T11:13:01;20.60;92.00
53695;DHT22;39588;51.124;7.190;2022-09-09T11:15:40;20.60;91.10
53695;DHT22;39588;51.124;7.190;2022-09-09T11:18:13;20.70;91.70
53695;DHT22;39588;51.124;7.190;2022-09-09T11:20:42;21.10;92.20
53695;DHT22;39588;51.124;7.190;2022-09-09T11:23:13;21.40;91.40
53695;DHT22;39588;51.124;7.190;2022-09-09T11:25:55;21.50;91.10
53695;DHT22;39588;51.124;7.190;2022-09-09T11:28:58;21.50;91.00
53695;DHT22;39588;51.124;7.190;2022-09-09T11:41:38;21.90;89.70
53695;DHT22;39588;51.124;7.190;2022-09-09T11:44:18;21.80;88.70
53695;DHT22;39588;51.124;7.190;2022-09-09T11:46:48;21.70;87.70
53695;DHT22;39588;51.124;7.190;2022-09-09T11:49:38;21.60;87.70
53695;DHT22;39588;51.124;7.190;2022-09-09T11:52:38;21.40;87.20
53695;DHT22;39588;51.124;7.190;2022-09-09T11:55:32;21.10;87.10
53695;DHT22;39588;51.124;7.190;2022-09-09T11:58:03;20.80;87.40
53695;DHT22;39588;51.124;7.190;2022-09-09T12:03:04;20.70;88.10
53695;DHT22;39588;51.124;7.190;2022-09-09T12:05:44;20.80;87.70
53695;DHT22;39588;51.124;7.190;2022-09-09T12:08:15;20.80;87.00
53695;DHT22;39588;51.124;7.190;2022-09-09T12:10:58;20.90;86.70
53695;DHT22;39588;51.124;7.190;2022-09-09T12:13:26;21.00;86.60
53695;DHT22;39588;51.124;7.190;2022-09-09T12:15:54;21.10;86.70
53695;DHT22;39588;51.124;7.190;2022-09-09T12:18:33;21.20;86.70
53695;DHT22;39588;51.124;7.190;2022-09-09T12:26:35;21.00;85.50
53695;DHT22;39588;51.124;7.190;2022-09-09T12:29:24;20.90;85.60
53695;DHT22;39588;51.124;7.190;2022-09-09T12:39:52;20.30;86.70
53695;DHT22;39588;51.124;7.190;2022-09-09T12:42:20;20.20;86.80
53695;DHT22;39588;51.124;7.190;2022-09-09T12:45:03;20.10;88.20
53695;DHT22;39588;51.124;7.190;2022-09-09T12:47:41;20.20;89.10
53695;DHT22;39588;51.124;7.190;2022-09-09T12:50:25;20.20;87.80
53695;DHT22;39588;51.124;7.190;2022-09-09T12:52:57;20.20;88.50
53695;DHT22;39588;51.124;7.190;2022-09-09T12:55:32;20.20;89.10
53695;DHT22;39588;51.124;7.190;2022-09-09T12:58:02;20.20;88.70
53695;DHT22;39588;51.124;7.190;2022-09-09T13:00:32;20.20;89.10
53695;DHT22;39588;51.124;7.190;2022-09-09T13:03:01;20.30;89.30
53695;DHT22;39588;51.124;7.190;2022-09-09T13:05:31;20.50;88.10
53695;DHT22;39588;51.124;7.190;2022-09-09T13:08:08;20.50;87.60
53695;DHT22;39588;51.124;7.190;2022-09-09T13:11:02;20.40;87.70
53695;DHT22;39588;51.124;7.190;2022-09-09T13:13:35;20.30;87.00
53695;DHT22;39588;51.124;7.190;2022-09-09T13:16:03;20.10;87.20
53695;DHT22;39588;51.124;7.190;2022-09-09T13:18:40;19.90;87.50
53695;DHT22;39588;51.124;7.190;2022-09-09T13:21:07;19.80;89.40
53695;DHT22;39588;51.124;7.190;2022-09-09T13:23:35;19.70;89.90
53695;DHT22;39588;51.124;7.190;2022-09-09T13:26:19;19.60;91.30
53695;DHT22;39588;51.124;7.190;2022-09-09T13:28:47;19.30;92.20
53695;DHT22;39588;51.124;7.190;2022-09-09T13:31:28;19.20;93.80
53695;DHT22;39588;51.124;7.190;2022-09-09T13:33:54;19.40;94.20
53695;DHT22;39588;51.124;7.190;2022-09-09T13:36:31;19.80;94.30
53695;DHT22;39588;51.124;7.190;2022-09-09T13:38:58;20.40;94.00
53695;DHT22;39588;51.124;7.190;2022-09-09T13:43:55;20.80;93.00
53695;DHT22;39588;51.124;7.190;2022-09-09T13:48:58;20.50;93.10
53695;DHT22;39588;51.124;7.190;2022-09-09T13:51:48;20.30;93.50
53695;DHT22;39588;51.124;7.190;2022-09-09T13:54:18;20.00;93.80
53695;DHT22;39588;51.124;7.190;2022-09-09T13:56:45;19.90;93.80
53695;DHT22;39588;51.124;7.190;2022-09-09T13:59:19;19.80;94.10
53695;DHT22;39588;51.124;7.190;2022-09-09T14:01:45;19.70;94.40
53695;DHT22;39588;51.124;7.190;2022-09-09T14:04:11;19.50;94.20
53695;DHT22;39588;51.124;7.190;2022-09-09T14:06:38;19.40;94.50
53695;DHT22;39588;51.124;7.190;2022-09-09T14:09:11;19.10;95.30
53695;DHT22;39588;51.124;7.190;2022-09-09T14:11:37;19.00;96.30
53695;DHT22;39588;51.124;7.190;2022-09-09T14:14:03;18.80;96.90
53695;DHT22;39588;51.124;7.190;2022-09-09T14:16:29;18.80;97.20
53695;DHT22;39588;51.124;7.190;2022-09-09T14:18:55;19.00;97.20
53695;DHT22;39588;51.124;7.190;2022-09-09T14:21:22;19.20;97.50
53695;DHT22;39588;51.124;7.190;2022-09-09T14:26:14;19.60;97.80
53695;DHT22;39588;51.124;7.190;2022-09-09T14:28:40;19.70;97.40
53695;DHT22;39588;51.124;7.190;2022-09-09T14:31:06;19.60;97.30
53695;DHT22;39588;51.124;7.190;2022-09-09T14:33:32;19.60;97.60
53695;DHT22;39588;51.124;7.190;2022-09-09T14:35:59;19.40;97.10
53695;DHT22;39588;51.124;7.190;2022-09-09T14:38:28;20.20;97.80
53695;DHT22;39588;51.124;7.190;2022-09-09T14:40:54;19.20;97.30
53695;DHT22;39588;51.124;7.190;2022-09-09T14:43:20;19.10;97.50
53695;DHT22;39588;51.124;7.190;2022-09-09T14:45:46;19.00;97.70
53695;DHT22;39588;51.124;7.190;2022-09-09T14:48:13;18.70;98.10
53695;DHT22;39588;51.124;7.190;2022-09-09T14:50:40;18.20;98.50
53695;DHT22;39588;51.124;7.190;2022-09-09T14:53:07;17.80;98.70
53695;DHT22;39588;51.124;7.190;2022-09-09T15:00:26;17.80;99.30
53695;DHT22;39588;51.124;7.190;2022-09-09T15:02:53;17.90;99.30
53695;DHT22;39588;51.124;7.190;2022-09-09T15:05:19;18.00;99.30
53695;DHT22;39588;51.124;7.190;2022-09-09T15:07:44;18.10;99.30
53695;DHT22;39588;51.124;7.190;2022-09-09T15:10:11;18.20;99.20
53695;DHT22;39588;51.124;7.190;2022-09-09T15:12:37;18.30;99.20
53695;DHT22;39588;51.124;7.190;2022-09-09T15:15:04;18.30;99.10
53695;DHT22;39588;51.124;7.190;2022-09-09T15:17:30;18.30;99.00
53695;DHT22;39588;51.124;7.190;2022-09-09T15:19:56;18.40;99.10
53695;DHT22;39588;51.124;7.190;2022-09-09T15:22:22;18.50;99.10
53695;DHT22;39588;51.124;7.190;2022-09-09T15:24:49;18.70;99.20
53695;DHT22;39588;51.124;7.190;2022-09-09T15:27:15;19.00;99.00
53695;DHT22;39588;51.124;7.190;2022-09-09T15:29:41;19.20;98.70
53695;DHT22;39588;51.124;7.190;2022-09-09T15:32:07;19.40;98.50
53695;DHT22;39588;51.124;7.190;2022-09-09T15:34:33;19.60;98.40
53695;DHT22;39588;51.124;7.190;2022-09-09T15:39:25;19.70;98.50
53695;DHT22;39588;51.124;7.190;2022-09-09T15:44:17;19.80;98.20
53695;DHT22;39588;51.124;7.190;2022-09-09T15:46:46;19.80;98.10
53695;DHT22;39588;51.124;7.190;2022-09-09T15:49:17;20.00;98.00
53695;DHT22;39588;51.124;7.190;2022-09-09T15:51:51;20.00;98.00
53695;DHT22;39588;51.124;7.190;2022-09-09T15:54:18;20.00;97.80
53695;DHT22;39588;51.124;7.190;2022-09-09T15:56:46;20.00;98.10
53695;DHT22;39588;51.124;7.190;2022-09-09T15:59:13;19.80;98.10
53695;DHT22;39588;51.124;7.190;2022-09-09T16:04:07;19.40;98.30
53695;DHT22;39588;51.124;7.190;2022-09-09T16:06:33;19.20;98.20
53695;DHT22;39588;51.124;7.190;2022-09-09T16:09:00;19.10;98.40
53695;DHT22;39588;51.124;7.190;2022-09-09T16:11:29;19.00;98.60
53695;DHT22;39588;51.124;7.190;2022-09-09T16:16:25;18.80;98.70
53695;DHT22;39588;51.124;7.190;2022-09-09T16:18:56;18.70;98.80
53695;DHT22;39588;51.124;7.190;2022-09-09T16:21:36;18.70;98.90
53695;DHT22;39588;51.124;7.190;2022-09-09T16:24:04;18.50;99.00
53695;DHT22;39588;51.124;7.190;2022-09-09T16:26:32;18.50;99.00
53695;DHT22;39588;51.124;7.190;2022-09-09T16:28:59;18.50;99.00
53695;DHT22;39588;51.124;7.190;2022-09-09T16:31:26;18.50;99.10
53695;DHT22;39588;51.124;7.190;2022-09-09T16:33:52;18.50;99.20
53695;DHT22;39588;51.124;7.190;2022-09-09T16:36:21;18.40;99.20
53695;DHT22;39588;51.124;7.190;2022-09-09T16:38:47;18.30;99.10
53695;DHT22;39588;51.124;7.190;2022-09-09T16:41:14;18.10;99.30
53695;DHT22;39588;51.124;7.190;2022-09-09T16:43:40;18.00;99.40
53695;DHT22;39588;51.124;7.190;2022-09-09T16:46:17;17.90;99.50
53695;DHT22;39588;51.124;7.190;2022-09-09T16:48:44;17.90;99.40
53695;DHT22;39588;51.124;7.190;2022-09-09T16:53:41;17.90;99.30
53695;DHT22;39588;51.124;7.190;2022-09-09T16:56:10;17.90;99.40
53695;DHT22;39588;51.124;7.190;2022-09-09T16:58:36;17.80;99.30
53695;DHT22;39588;51.124;7.190;2022-09-09T17:01:03;17.70;99.40
53695;DHT22;39588;51.124;7.190;2022-09-09T17:05:55;17.70;99.30
53695;DHT22;39588;51.124;7.190;2022-09-09T17:10:49;17.60;99.30
53695;DHT22;39588;51.124;7.190;2022-09-09T17:13:15;17.60;99.30
53695;DHT22;39588;51.124;7.190;2022-09-09T17:15:45;17.50;99.30
53695;DHT22;39588;51.124;7.190;2022-09-09T17:18:11;17.50;99.30
53695;DHT22;39588;51.124;7.190;2022-09-09T17:20:41;17.50;99.20
53695;DHT22;39588;51.124;7.190;2022-09-09T17:23:08;17.50;99.30
53695;DHT22;39588;51.124;7.190;2022-09-09T17:30:30;17.40;99.30
53695;DHT22;39588;51.124;7.190;2022-09-09T17:42:40;16.90;99.60
53695;DHT22;39588;51.124;7.190;2022-09-09T17:45:06;16.70;99.70
53695;DHT22;39588;51.124;7.190;2022-09-09T17:47:32;16.60;99.90
53695;DHT22;39588;51.124;7.190;2022-09-09T17:49:58;16.50;99.90
53695;DHT22;39588;51.124;7.190;2022-09-09T17:52:24;16.50;99.90
53695;DHT22;39588;51.124;7.190;2022-09-09T17:57:16;16.50;99.90
53695;DHT22;39588;51.124;7.190;2022-09-09T17:59:44;16.50;99.90
53695;DHT22;39588;51.124;7.190;2022-09-09T18:02:13;16.40;99.90
53695;DHT22;39588;51.124;7.190;2022-09-09T18:04:38;16.40;99.90
53695;DHT22;39588;51.124;7.190;2022-09-09T18:07:04;16.30;99.90
53695;DHT22;39588;51.124;7.190;2022-09-09T18:09:30;16.30;99.90
53695;DHT22;39588;51.124;7.190;2022-09-09T18:14:29;16.20;99.90
53695;DHT22;39588;51.124;7.190;2022-09-09T18:19:24;16.40;99.90
53695;DHT22;39588;51.124;7.190;2022-09-09T18:26:45;16.40;99.90
53695;DHT22;39588;51.124;7.190;2022-09-09T18:29:15;16.40;99.90
53695;DHT22;39588;51.124;7.190;2022-09-09T18:31:41;16.60;99.90
53695;DHT22;39588;51.124;7.190;2022-09-09T18:36:59;16.50;99.90
53695;DHT22;39588;51.124;7.190;2022-09-09T18:39:27;16.50;99.90
53695;DHT22;39588;51.124;7.190;2022-09-09T18:41:56;16.60;99.90
53695;DHT22;39588;51.124;7.190;2022-09-09T18:44:25;16.60;99.90
53695;DHT22;39588;51.124;7.190;2022-09-09T18:46:51;16.60;99.90
53695;DHT22;39588;51.124;7.190;2022-09-09T18:49:17;16.60;99.90
53695;DHT22;39588;51.124;7.190;2022-09-09T18:51:57;16.60;99.90
53695;DHT22;39588;51.124;7.190;2022-09-09T18:57:00;16.50;99.90
53695;DHT22;39588;51.124;7.190;2022-09-09T18:59:26;16.40;99.90
53695;DHT22;39588;51.124;7.190;2022-09-09T19:04:23;16.50;99.90
53695;DHT22;39588;51.124;7.190;2022-09-09T19:09:22;16.00;99.90
53695;DHT22;39588;51.124;7.190;2022-09-09T19:11:48;16.40;99.90
53695;DHT22;39588;51.124;7.190;2022-09-09T19:14:15;16.30;99.90
53695;DHT22;39588;51.124;7.190;2022-09-09T19:21:40;16.30;99.90
53695;DHT22;39588;51.124;7.190;2022-09-09T19:24:19;16.20;99.90
53695;DHT22;39588;51.124;7.190;2022-09-09T19:29:21;16.00;99.90
53695;DHT22;39588;51.124;7.190;2022-09-09T19:31:48;16.00;99.90
53695;DHT22;39588;51.124;7.190;2022-09-09T19:34:14;16.00;99.90
53695;DHT22;39588;51.124;7.190;2022-09-09T19:36:41;16.00;99.90
53695;DHT22;39588;51.124;7.190;2022-09-09T19:39:08;16.00;99.90
53695;DHT22;39588;51.124;7.190;2022-09-09T19:41:34;16.10;99.90
53695;DHT22;39588;51.124;7.190;2022-09-09T19:44:04;16.10;99.90
53695;DHT22;39588;51.124;7.190;2022-09-09T19:51:29;16.10;99.90
53695;DHT22;39588;51.124;7.190;2022-09-09T19:54:01;16.20;99.90
53695;DHT22;39588;51.124;7.190;2022-09-09T19:56:28;16.20;99.90
53695;DHT22;39588;51.124;7.190;2022-09-09T20:01:24;16.20;99.90